0NC6 weather

Our Community Hospital Heliport
Scotland Neck, North Carolina, United States

Public forecast

Using degrees Fahrenheit for public forecast. Weather courtesy of forecast.io.

METAR (pilot weather report)

Closest report is Tarboro Edgecombe Airport, 13.2 nm (24.5 km) SSW. Retrieved 2019/06/17 20:40 UTC (0 seconds ago):

KETC 172040Z AUTO 23008KT 10SM BKN050 33/21 A2998 RMK AO2 PWINO T03310212

TAF (pilot weather forecast)

Closest forecast is Rocky Mount Wilson Regional Airport, 28.3 nm (52.4 km) SW. Retrieved 2019/06/17 18:22 UTC (2 hours ago):

TAF KRWI 171720Z 1718/1818 24011KT P6SM SCT050 FM171900 20009KT P6SM VCTS SCT060CB SCT250 FM172200 19007KT P6SM FEW060 SCT100 SCT250 FM181300 22008KT P6SM FEW250